createdAt,value
2022-10-26T00:00:33.451Z,88.09
2022-10-26T00:03:25.528Z,88.17
2022-10-26T00:06:03.157Z,88.19
2022-10-26T00:08:35.594Z,88.11
2022-10-26T00:11:10.040Z,88.32
2022-10-26T00:13:43.216Z,88.24
2022-10-26T00:16:19.345Z,87.97
2022-10-26T00:18:51.972Z,88.07
2022-10-26T00:21:24.701Z,88.32
2022-10-26T00:23:59.859Z,88.35
2022-10-26T00:26:31.866Z,88.48
2022-10-26T00:29:04.598Z,88.93
2022-10-26T00:31:38.241Z,88.91
2022-10-26T00:34:11.945Z,89.19
2022-10-26T00:36:44.286Z,89.30
2022-10-26T00:39:18.097Z,89.11
2022-10-26T00:41:51.142Z,89.15
2022-10-26T00:45:05.730Z,89.20
2022-10-26T00:47:42.917Z,89.16
2022-10-26T00:50:21.437Z,88.98
2022-10-26T00:52:54.521Z,89.00
2022-10-26T00:55:32.984Z,89.16
2022-10-26T00:58:11.336Z,89.12
2022-10-26T01:00:48.150Z,88.95
2022-10-26T01:03:21.640Z,88.66
2022-10-26T01:05:56.617Z,88.51
2022-10-26T01:08:29.986Z,88.26
2022-10-26T01:11:03.698Z,88.24
2022-10-26T01:13:39.663Z,88.19
2022-10-26T01:16:27.250Z,88.07
2022-10-26T01:19:17.928Z,88.24
2022-10-26T01:21:56.244Z,88.06
2022-10-26T01:24:54.291Z,87.90
2022-10-26T01:27:35.715Z,87.55
2022-10-26T01:30:28.190Z,87.54
2022-10-26T01:33:21.392Z,87.53
2022-10-26T01:36:04.589Z,87.86
2022-10-26T01:38:47.363Z,87.58
2022-10-26T01:41:25.241Z,87.34
2022-10-26T01:44:01.345Z,86.88
2022-10-26T01:46:36.468Z,87.20
2022-10-26T01:49:13.093Z,87.53
2022-10-26T01:51:48.386Z,87.33
2022-10-26T01:54:20.543Z,87.11
2022-10-26T01:56:56.754Z,87.21
2022-10-26T01:59:41.006Z,86.96
2022-10-26T02:02:33.629Z,87.03
2022-10-26T02:05:32.703Z,87.16
2022-10-26T02:08:24.121Z,87.20
2022-10-26T02:11:10.411Z,87.30
2022-10-26T02:13:48.013Z,87.78
2022-10-26T02:16:26.093Z,87.64
2022-10-26T02:19:06.457Z,87.53
2022-10-26T02:21:44.800Z,87.66
2022-10-26T02:24:18.331Z,87.84
2022-10-26T02:26:51.895Z,87.94
2022-10-26T02:29:26.215Z,87.79
2022-10-26T02:31:59.147Z,87.61
2022-10-26T02:34:31.774Z,87.74
2022-10-26T02:37:06.081Z,87.70
2022-10-26T02:39:40.549Z,87.57
2022-10-26T02:42:15.606Z,87.74
2022-10-26T02:44:52.501Z,87.94
2022-10-26T02:47:27.846Z,87.95
2022-10-26T02:50:00.995Z,88.23
2022-10-26T02:52:45.685Z,88.29
2022-10-26T02:55:24.592Z,88.54
2022-10-26T02:57:59.543Z,88.57
2022-10-26T03:00:34.627Z,88.41
2022-10-26T03:03:07.436Z,88.43
2022-10-26T03:05:44.838Z,88.53
2022-10-26T03:08:16.894Z,88.49
2022-10-26T03:10:49.283Z,88.54
2022-10-26T03:13:21.249Z,88.64
2022-10-26T03:15:55.963Z,88.70
2022-10-26T03:18:27.971Z,88.72
2022-10-26T03:20:59.908Z,88.93
2022-10-26T03:23:31.980Z,89.07
2022-10-26T03:26:04.225Z,89.17
2022-10-26T03:28:36.522Z,89.28
2022-10-26T03:31:11.217Z,89.32
2022-10-26T03:33:43.545Z,89.19
2022-10-26T03:36:15.440Z,89.32
2022-10-26T03:38:47.846Z,89.11
2022-10-26T03:41:22.246Z,88.89
2022-10-26T03:43:54.729Z,88.92
2022-10-26T03:46:28.973Z,88.89
2022-10-26T03:49:00.992Z,88.81
2022-10-26T03:51:33.389Z,88.94
2022-10-26T03:54:05.754Z,88.90
2022-10-26T03:56:39.390Z,88.85
2022-10-26T03:59:11.478Z,89.08
2022-10-26T04:01:43.534Z,89.23
2022-10-26T04:04:16.109Z,89.27
2022-10-26T04:06:49.120Z,89.26
2022-10-26T04:09:21.305Z,88.98
2022-10-26T04:11:53.440Z,88.93
2022-10-26T04:14:25.656Z,89.16
2022-10-26T04:16:57.685Z,88.79
2022-10-26T04:19:32.176Z,88.67
2022-10-26T04:22:04.112Z,88.57
2022-10-26T04:24:36.486Z,88.56
2022-10-26T04:27:11.230Z,88.64
2022-10-26T04:29:43.300Z,88.58
2022-10-26T04:32:15.269Z,88.49
2022-10-26T04:34:47.307Z,88.80
2022-10-26T04:37:19.314Z,88.69
2022-10-26T04:39:51.314Z,88.55
2022-10-26T04:42:23.634Z,88.50
2022-10-26T04:44:55.663Z,88.21
2022-10-26T04:47:27.721Z,88.32
2022-10-26T04:50:02.087Z,88.28
2022-10-26T04:52:34.053Z,88.27
2022-10-26T04:55:07.168Z,88.46
2022-10-26T04:57:39.148Z,89.08
2022-10-26T05:00:13.052Z,89.54
2022-10-26T05:02:45.135Z,89.92
2022-10-26T05:05:17.403Z,90.29
2022-10-26T05:07:56.878Z,89.93
2022-10-26T05:10:29.591Z,89.94
2022-10-26T05:13:02.658Z,89.86
2022-10-26T05:15:34.624Z,90.03
2022-10-26T05:18:09.126Z,89.73
2022-10-26T05:20:41.051Z,89.54
2022-10-26T05:23:18.415Z,89.37
2022-10-26T05:25:51.898Z,89.25
2022-10-26T05:28:24.461Z,89.23
2022-10-26T05:30:56.399Z,89.38
2022-10-26T05:33:28.872Z,89.15
2022-10-26T05:36:00.902Z,89.01
2022-10-26T05:38:32.926Z,89.22
2022-10-26T05:41:05.160Z,89.35
2022-10-26T05:43:37.111Z,89.36
2022-10-26T05:46:09.137Z,89.26
2022-10-26T05:48:41.068Z,89.16
2022-10-26T05:51:14.374Z,89.04
2022-10-26T05:53:46.347Z,88.78
2022-10-26T05:56:24.409Z,88.86
2022-10-26T05:58:57.239Z,88.86
2022-10-26T06:01:43.875Z,88.98
2022-10-26T06:04:27.720Z,88.91
2022-10-26T06:07:00.475Z,88.77
2022-10-26T06:09:33.583Z,89.14
2022-10-26T06:12:07.450Z,89.30
2022-10-26T06:14:40.376Z,89.11
2022-10-26T06:17:36.635Z,89.18
2022-10-26T06:20:22.286Z,89.30
2022-10-26T06:23:06.541Z,89.27
2022-10-26T06:25:45.534Z,89.51
2022-10-26T06:28:29.874Z,89.75
2022-10-26T06:31:01.925Z,89.75
2022-10-26T06:33:34.236Z,89.99
2022-10-26T06:36:21.701Z,89.96
2022-10-26T06:38:58.081Z,90.10
2022-10-26T06:41:32.052Z,90.15
2022-10-26T06:44:06.292Z,90.30
2022-10-26T06:46:45.075Z,90.98
2022-10-26T06:49:23.212Z,92.61
2022-10-26T06:51:59.879Z,93.70
2022-10-26T06:54:46.704Z,93.85
2022-10-26T06:57:22.485Z,91.64
2022-10-26T07:00:01.124Z,90.83
2022-10-26T07:02:33.936Z,90.61
2022-10-26T07:05:10.239Z,90.24
2022-10-26T07:07:44.350Z,90.95
2022-10-26T07:10:17.723Z,92.13
2022-10-26T07:12:49.830Z,94.23
2022-10-26T07:15:24.665Z,94.45
2022-10-26T07:17:56.585Z,92.89
2022-10-26T07:20:30.189Z,90.68
2022-10-26T07:23:06.933Z,88.91
2022-10-26T07:25:40.578Z,87.27
2022-10-26T07:28:13.184Z,83.29
2022-10-26T07:30:45.205Z,81.99
2022-10-26T07:33:17.564Z,81.56
2022-10-26T07:35:52.124Z,82.35
2022-10-26T07:38:24.042Z,82.42
2022-10-26T07:40:56.024Z,82.07
2022-10-26T07:43:28.421Z,82.50
2022-10-26T07:46:00.369Z,81.18
2022-10-26T07:48:32.574Z,80.20
2022-10-26T07:51:05.491Z,78.36
2022-10-26T07:53:37.458Z,77.58
2022-10-26T07:56:11.232Z,76.59
2022-10-26T07:58:44.086Z,76.75
2022-10-26T08:01:17.708Z,76.99
2022-10-26T08:03:52.659Z,76.36
2022-10-26T08:06:25.130Z,73.33
2022-10-26T08:09:00.022Z,73.00
2022-10-26T08:11:32.070Z,71.58
2022-10-26T08:14:04.484Z,69.61
2022-10-26T08:16:36.410Z,70.43
2022-10-26T08:19:08.659Z,70.10
2022-10-26T08:21:41.937Z,70.67
2022-10-26T08:24:14.684Z,69.77
2022-10-26T08:26:46.565Z,67.57
2022-10-26T08:29:20.452Z,65.30
2022-10-26T08:31:52.412Z,63.25
2022-10-26T08:34:24.287Z,61.32
2022-10-26T08:55:05.524Z,44.87
2022-10-26T09:11:09.972Z,36.48
2022-10-26T09:15:33.459Z,35.53
2022-10-26T09:27:16.723Z,31.60
2022-10-26T09:29:56.315Z,31.12
2022-10-26T09:32:28.445Z,30.04
2022-10-26T09:35:07.661Z,29.22
2022-10-26T09:37:42.001Z,29.83
2022-10-26T09:40:22.871Z,29.09
2022-10-26T09:43:03.886Z,28.98
2022-10-26T09:45:39.027Z,28.42
2022-10-26T09:48:17.688Z,28.63
2022-10-26T09:50:52.550Z,27.95
2022-10-26T09:53:25.008Z,27.87
2022-10-26T09:56:06.708Z,28.06
2022-10-26T09:58:42.744Z,28.61
2022-10-26T10:01:35.687Z,28.77
2022-10-26T10:04:21.163Z,28.70
2022-10-26T10:07:12.387Z,28.75
2022-10-26T10:09:44.430Z,28.83
2022-10-26T10:12:23.101Z,28.37
2022-10-26T10:15:01.856Z,28.89
2022-10-26T10:17:34.708Z,29.56
2022-10-26T10:20:19.227Z,30.32
2022-10-26T10:22:59.866Z,30.60
2022-10-26T10:25:40.182Z,30.04
2022-10-26T10:28:25.670Z,30.06
2022-10-26T10:31:00.511Z,30.04
2022-10-26T10:33:45.866Z,29.59
2022-10-26T10:36:59.365Z,29.17
2022-10-26T10:39:38.695Z,29.17
2022-10-26T10:42:22.974Z,28.19
2022-10-26T10:44:56.839Z,28.15
2022-10-26T10:47:30.901Z,28.58
2022-10-26T10:50:05.884Z,29.21
2022-10-26T10:52:41.263Z,28.42
2022-10-26T10:55:22.178Z,27.93
2022-10-26T10:58:09.465Z,28.28
2022-10-26T11:00:45.088Z,28.88
2022-10-26T11:03:32.353Z,29.41
2022-10-26T11:06:16.411Z,29.27
2022-10-26T11:08:53.746Z,29.65
2022-10-26T11:11:29.994Z,30.03
2022-10-26T11:14:06.847Z,30.58
2022-10-26T11:16:43.680Z,31.12
2022-10-26T11:19:23.872Z,31.35
2022-10-26T11:21:57.265Z,31.70
2022-10-26T11:24:35.313Z,32.13
2022-10-26T11:27:17.094Z,32.66
2022-10-26T11:29:52.890Z,33.43
2022-10-26T11:32:29.979Z,33.72
2022-10-26T11:35:06.783Z,34.16
2022-10-26T11:37:46.484Z,34.77
2022-10-26T11:40:34.746Z,35.32
2022-10-26T11:43:15.615Z,35.84
2022-10-26T11:45:55.665Z,36.17
2022-10-26T11:48:37.140Z,37.07
2022-10-26T11:51:17.788Z,37.59
2022-10-26T11:54:08.345Z,37.81
2022-10-26T11:56:45.519Z,37.59
2022-10-26T11:59:21.987Z,37.74
2022-10-26T12:01:58.356Z,38.20
2022-10-26T12:04:34.878Z,38.76
2022-10-26T12:07:12.724Z,39.55
2022-10-26T12:09:46.472Z,39.80
2022-10-26T12:12:28.077Z,40.13
2022-10-26T12:15:07.104Z,40.31
2022-10-26T12:17:46.717Z,40.34
2022-10-26T12:20:50.583Z,40.73
2022-10-26T12:23:40.510Z,41.09
2022-10-26T12:26:51.634Z,41.25
2022-10-26T12:29:45.706Z,41.65
2022-10-26T12:32:54.322Z,42.21
2022-10-26T12:35:35.503Z,42.54
2022-10-26T12:38:55.535Z,42.87
2022-10-26T12:41:29.207Z,43.42
2022-10-26T12:44:25.517Z,43.36
2022-10-26T12:46:57.528Z,43.61
2022-10-26T12:49:59.708Z,44.10
2022-10-26T12:52:47.501Z,44.72
2022-10-26T12:55:57.249Z,45.17
2022-10-26T12:59:05.243Z,45.04
2022-10-26T13:05:06.075Z,43.92
2022-10-26T13:07:41.652Z,43.21
2022-10-26T13:10:24.304Z,43.03
2022-10-26T13:12:58.383Z,42.41
2022-10-26T13:15:34.646Z,41.81
2022-10-26T13:18:18.019Z,41.29
2022-10-26T13:21:05.283Z,41.34
2022-10-26T13:23:39.836Z,40.68
2022-10-26T13:26:13.894Z,40.27
2022-10-26T13:28:52.095Z,40.21
2022-10-26T13:31:57.794Z,40.25
2022-10-26T13:34:33.047Z,40.39
2022-10-26T13:37:21.356Z,40.28
2022-10-26T13:39:56.325Z,40.46
2022-10-26T13:49:47.510Z,41.09
2022-10-26T13:52:28.745Z,41.28
2022-10-26T13:55:04.913Z,41.34
2022-10-26T13:57:40.611Z,41.40
2022-10-26T14:00:20.546Z,41.42
2022-10-26T14:02:52.911Z,41.72
2022-10-26T14:05:26.089Z,41.86
2022-10-26T14:08:00.355Z,41.97
2022-10-26T14:10:38.104Z,41.97
2022-10-26T14:13:19.242Z,41.86
2022-10-26T14:15:51.564Z,42.13
2022-10-26T14:18:26.665Z,42.24
2022-10-26T14:21:03.317Z,42.38
2022-10-26T14:23:38.971Z,42.45
2022-10-26T14:26:22.425Z,42.38
2022-10-26T14:28:59.388Z,42.51
2022-10-26T14:31:35.835Z,42.70
2022-10-26T14:34:13.500Z,43.05
2022-10-26T14:36:49.967Z,43.32
2022-10-26T14:39:31.356Z,43.73
2022-10-26T14:42:11.492Z,44.00
2022-10-26T14:44:43.864Z,44.55
2022-10-26T14:47:24.453Z,44.89
2022-10-26T14:49:57.594Z,45.25
2022-10-26T14:52:33.927Z,45.57
2022-10-26T14:55:16.206Z,46.19
2022-10-26T14:57:49.764Z,46.45
2022-10-26T15:00:24.550Z,46.67
2022-10-26T15:02:59.300Z,47.18
2022-10-26T15:05:35.989Z,47.58
2022-10-26T15:08:56.967Z,47.87
2022-10-26T15:11:33.601Z,48.46
2022-10-26T15:14:12.738Z,48.71
2022-10-26T15:16:54.892Z,49.07
2022-10-26T15:19:30.879Z,49.68
2022-10-26T15:22:03.637Z,50.11
2022-10-26T15:24:40.054Z,50.20
2022-10-26T15:27:19.296Z,50.83
2022-10-26T15:30:09.315Z,50.96
2022-10-26T15:32:42.062Z,51.55
2022-10-26T15:35:33.644Z,51.65
2022-10-26T15:38:05.821Z,52.21
2022-10-26T15:40:45.480Z,52.48
2022-10-26T15:43:17.571Z,52.98
2022-10-26T15:45:54.638Z,53.04
2022-10-26T15:48:30.038Z,53.40
2022-10-26T15:51:02.114Z,53.87
2022-10-26T15:53:34.738Z,53.84
2022-10-26T15:56:14.348Z,54.16
2022-10-26T15:58:47.160Z,54.47
2022-10-26T16:01:29.434Z,54.75
2022-10-26T16:04:02.351Z,54.93
2022-10-26T16:06:36.459Z,54.93
2022-10-26T16:09:13.550Z,55.29
2022-10-26T16:11:46.202Z,55.59
2022-10-26T16:14:21.223Z,55.54
2022-10-26T16:16:53.182Z,56.02
2022-10-26T16:19:30.718Z,56.04
2022-10-26T16:22:04.061Z,56.38
2022-10-26T16:24:36.537Z,56.61
2022-10-26T16:27:08.505Z,56.66
2022-10-26T16:29:40.541Z,57.15
2022-10-26T16:32:13.004Z,57.22
2022-10-26T16:34:45.097Z,57.70
2022-10-26T16:37:17.237Z,57.94
2022-10-26T16:39:49.109Z,58.13
2022-10-26T16:42:21.128Z,58.24
2022-10-26T16:44:54.096Z,58.60
2022-10-26T16:47:26.482Z,58.63
2022-10-26T16:49:58.571Z,58.58
2022-10-26T16:52:30.914Z,58.89
2022-10-26T16:55:03.541Z,59.09
2022-10-26T16:57:35.839Z,59.21
2022-10-26T17:00:10.242Z,59.49
2022-10-26T17:02:44.500Z,59.75
2022-10-26T17:05:16.751Z,59.83
2022-10-26T17:07:50.660Z,59.76
2022-10-26T17:10:28.148Z,60.21
2022-10-26T17:13:00.121Z,60.54
2022-10-26T17:15:35.688Z,60.66
2022-10-26T17:18:12.027Z,60.69
2022-10-26T17:32:27.804Z,61.68
2022-10-26T17:40:46.022Z,62.50
2022-10-26T17:43:18.633Z,62.80
2022-10-26T17:48:45.839Z,63.25
2022-10-26T17:56:09.075Z,63.70
2022-10-26T17:59:14.734Z,64.00
2022-10-26T18:01:47.433Z,63.85
2022-10-26T18:04:26.045Z,64.11
2022-10-26T18:11:55.045Z,64.84
2022-10-26T18:24:22.946Z,65.37
2022-10-26T18:26:55.179Z,65.41
2022-10-26T18:29:27.314Z,65.30
2022-10-26T18:32:28.874Z,65.31
2022-10-26T18:35:01.252Z,65.75
2022-10-26T18:38:56.384Z,66.11
2022-10-26T18:46:33.966Z,66.45
2022-10-26T18:54:44.667Z,67.10
2022-10-26T19:05:58.570Z,67.72
2022-10-26T19:08:30.866Z,67.65
2022-10-26T19:11:43.490Z,67.73
2022-10-26T19:14:16.439Z,68.09
2022-10-26T19:16:51.732Z,68.21
2022-10-26T19:25:40.554Z,68.41
2022-10-26T19:28:43.651Z,68.43
2022-10-26T19:31:16.262Z,68.70
2022-10-26T19:35:18.362Z,68.84
2022-10-26T19:37:51.014Z,69.10
2022-10-26T19:40:23.751Z,69.08
2022-10-26T19:43:02.158Z,69.38
2022-10-26T19:45:34.185Z,69.59
2022-10-26T19:48:51.947Z,69.44
2022-10-26T19:51:25.420Z,69.64
2022-10-26T19:54:03.104Z,69.66
2022-10-26T19:56:39.416Z,69.83
2022-10-26T19:59:13.602Z,69.90
2022-10-26T20:01:45.845Z,70.14
2022-10-26T20:04:36.939Z,69.82
2022-10-26T20:07:09.128Z,70.11
2022-10-26T20:09:47.089Z,70.08
2022-10-26T20:12:19.304Z,70.42
2022-10-26T20:14:51.328Z,70.22
2022-10-26T20:17:28.493Z,70.39
2022-10-26T20:20:03.984Z,70.31
2022-10-26T20:22:36.135Z,70.36
2022-10-26T20:25:10.390Z,70.43
2022-10-26T20:27:48.646Z,70.40
2022-10-26T20:30:21.118Z,70.47
2022-10-26T20:32:53.343Z,70.46
2022-10-26T20:35:27.162Z,70.43
2022-10-26T20:38:00.906Z,70.75
2022-10-26T20:40:34.129Z,70.94
2022-10-26T20:43:09.865Z,71.14
2022-10-26T20:45:49.017Z,71.22
2022-10-26T20:48:24.670Z,71.24
2022-10-26T20:51:02.422Z,71.22
2022-10-26T20:53:39.390Z,71.24
2022-10-26T20:56:21.077Z,71.23
2022-10-26T20:58:57.510Z,71.39
2022-10-26T21:01:32.024Z,71.36
2022-10-26T21:04:07.269Z,71.28
2022-10-26T21:06:55.567Z,71.37
2022-10-26T21:09:31.794Z,71.52
2022-10-26T21:12:08.644Z,71.78
2022-10-26T21:14:41.090Z,71.86
2022-10-26T21:17:13.378Z,71.96
2022-10-26T21:19:53.963Z,72.01
2022-10-26T21:22:26.102Z,72.39
2022-10-26T21:24:58.424Z,72.47
2022-10-26T21:27:31.593Z,72.66
2022-10-26T21:30:06.679Z,73.09
2022-10-26T21:32:38.688Z,72.92
2022-10-26T21:35:11.320Z,73.29
2022-10-26T21:37:46.450Z,73.36
2022-10-26T21:40:18.763Z,73.45
2022-10-26T21:42:53.977Z,73.56
2022-10-26T21:45:26.121Z,73.78
2022-10-26T21:47:58.097Z,73.97
2022-10-26T21:50:30.152Z,73.83
2022-10-26T21:53:02.492Z,74.83
2022-10-26T21:55:34.993Z,74.89
2022-10-26T21:58:11.065Z,75.05
2022-10-26T22:00:46.191Z,75.07
2022-10-26T22:03:23.036Z,75.85
2022-10-26T22:06:06.844Z,75.98
2022-10-26T22:08:39.646Z,76.26
2022-10-26T22:11:15.798Z,76.62
2022-10-26T22:13:52.401Z,76.87
2022-10-26T22:16:26.409Z,76.79
2022-10-26T22:19:04.022Z,76.56
2022-10-26T22:21:40.283Z,76.59
2022-10-26T22:24:12.759Z,76.18
2022-10-26T22:26:44.764Z,76.23
2022-10-26T22:29:19.880Z,76.05
2022-10-26T22:31:55.129Z,76.17
2022-10-26T22:34:28.114Z,76.06
2022-10-26T22:37:00.160Z,75.78
2022-10-26T22:39:32.165Z,75.70
2022-10-26T22:42:06.931Z,75.65
2022-10-26T22:44:39.117Z,75.49
2022-10-26T22:47:13.789Z,75.40
2022-10-26T22:49:46.827Z,75.50
2022-10-26T22:52:22.719Z,75.52
2022-10-26T22:54:55.340Z,75.60
2022-10-26T22:57:27.926Z,75.59
2022-10-26T23:00:00.780Z,75.52
2022-10-26T23:02:38.152Z,75.52
2022-10-26T23:05:11.429Z,75.47
2022-10-26T23:07:43.453Z,75.46
2022-10-26T23:10:15.470Z,75.58
2022-10-26T23:12:50.024Z,75.83
2022-10-26T23:15:22.156Z,75.85
2022-10-26T23:17:55.996Z,75.76
2022-10-26T23:20:32.443Z,75.80
2022-10-26T23:23:04.833Z,75.86
2022-10-26T23:25:36.866Z,75.94
2022-10-26T23:28:12.915Z,75.86
2022-10-26T23:30:47.508Z,75.96
2022-10-26T23:33:22.326Z,76.07
2022-10-26T23:35:58.943Z,76.25
2022-10-26T23:38:34.317Z,76.30
2022-10-26T23:41:12.817Z,76.42
2022-10-26T23:43:45.940Z,76.51
2022-10-26T23:46:18.344Z,76.66
2022-10-26T23:48:53.990Z,76.92
2022-10-26T23:51:26.890Z,76.75
2022-10-26T23:53:59.948Z,76.91
2022-10-26T23:56:32.311Z,76.82
2022-10-26T23:59:08.595Z,77.07
